Kansas City, Kansas
Current Conditions -  °F | °C
As of 1:54 PM on Saturday 20 Dec 2014 (Local Time) from KMKC Reporting Station
Overcast Overcast  
Wind Chill: 42°   Ceiling: 2300
Heat Index: 47°   Visibility: 10mi
Dew Point: 38°   Wind: 12mph
Humidity: 71%   Direction: 200°SSW
Pressure: 30.11"   Gusts: NA
Location:  39.11°N, 94.63°W
Report Text: KMKC 201954Z 20010KT 10SM OVC023 08/03 A3011 RMK AO2 SLP200 T00830033
Loading
Personal Weather Stations






























Interactive Weather Map New forecast layout! Learn more

10-Day Weather Forecast

Advertisements
Track Severe Weather on mobile